sensor_id;sensor_type;location;lat;lon;timestamp;P1;durP1;ratioP1;P2;durP2;ratioP2
14847;SDS011;7516;43.570;1.448;2023-02-05T00:01:34;3.33;;;2.60;;
14847;SDS011;7516;43.570;1.448;2023-02-05T00:04:02;3.73;;;2.50;;
14847;SDS011;7516;43.570;1.448;2023-02-05T00:06:29;2.90;;;2.60;;
14847;SDS011;7516;43.570;1.448;2023-02-05T00:08:57;3.80;;;2.50;;
14847;SDS011;7516;43.570;1.448;2023-02-05T00:11:26;4.93;;;3.33;;
14847;SDS011;7516;43.570;1.448;2023-02-05T00:13:53;3.90;;;2.53;;
14847;SDS011;7516;43.570;1.448;2023-02-05T00:16:21;5.97;;;3.73;;
14847;SDS011;7516;43.570;1.448;2023-02-05T00:18:50;5.77;;;3.30;;
14847;SDS011;7516;43.570;1.448;2023-02-05T00:21:18;4.57;;;3.33;;
14847;SDS011;7516;43.570;1.448;2023-02-05T00:23:47;4.23;;;3.00;;
14847;SDS011;7516;43.570;1.448;2023-02-05T00:26:15;4.77;;;3.20;;
14847;SDS011;7516;43.570;1.448;2023-02-05T00:28:44;3.87;;;2.83;;
14847;SDS011;7516;43.570;1.448;2023-02-05T00:31:12;3.33;;;2.80;;
14847;SDS011;7516;43.570;1.448;2023-02-05T00:33:41;3.83;;;2.43;;
14847;SDS011;7516;43.570;1.448;2023-02-05T00:36:10;4.33;;;2.73;;
14847;SDS011;7516;43.570;1.448;2023-02-05T00:38:38;4.53;;;2.67;;
14847;SDS011;7516;43.570;1.448;2023-02-05T00:41:06;4.00;;;2.70;;
14847;SDS011;7516;43.570;1.448;2023-02-05T00:43:34;2.93;;;2.17;;
14847;SDS011;7516;43.570;1.448;2023-02-05T00:46:03;4.67;;;2.40;;
14847;SDS011;7516;43.570;1.448;2023-02-05T00:48:30;3.07;;;2.17;;
14847;SDS011;7516;43.570;1.448;2023-02-05T00:50:58;2.67;;;2.00;;
14847;SDS011;7516;43.570;1.448;2023-02-05T00:53:25;2.90;;;2.40;;
14847;SDS011;7516;43.570;1.448;2023-02-05T00:55:53;2.70;;;2.40;;
14847;SDS011;7516;43.570;1.448;2023-02-05T00:58:21;2.47;;;1.90;;
14847;SDS011;7516;43.570;1.448;2023-02-05T01:00:48;2.60;;;2.20;;
14847;SDS011;7516;43.570;1.448;2023-02-05T01:03:18;3.50;;;2.33;;
14847;SDS011;7516;43.570;1.448;2023-02-05T01:05:46;2.87;;;2.10;;
14847;SDS011;7516;43.570;1.448;2023-02-05T01:08:13;2.13;;;1.93;;
14847;SDS011;7516;43.570;1.448;2023-02-05T01:10:42;2.30;;;2.00;;
14847;SDS011;7516;43.570;1.448;2023-02-05T01:13:10;4.23;;;2.07;;
14847;SDS011;7516;43.570;1.448;2023-02-05T01:15:38;3.40;;;2.70;;
14847;SDS011;7516;43.570;1.448;2023-02-05T01:18:05;2.47;;;2.27;;
14847;SDS011;7516;43.570;1.448;2023-02-05T01:20:36;5.20;;;2.97;;
14847;SDS011;7516;43.570;1.448;2023-02-05T01:23:04;4.97;;;2.77;;
14847;SDS011;7516;43.570;1.448;2023-02-05T01:25:32;4.57;;;2.60;;
14847;SDS011;7516;43.570;1.448;2023-02-05T01:27:59;2.30;;;2.00;;
14847;SDS011;7516;43.570;1.448;2023-02-05T01:30:27;3.53;;;2.47;;
14847;SDS011;7516;43.570;1.448;2023-02-05T01:32:54;3.33;;;2.47;;
14847;SDS011;7516;43.570;1.448;2023-02-05T01:35:22;2.77;;;2.30;;
14847;SDS011;7516;43.570;1.448;2023-02-05T01:37:51;4.00;;;2.70;;
14847;SDS011;7516;43.570;1.448;2023-02-05T01:40:18;5.33;;;3.30;;
14847;SDS011;7516;43.570;1.448;2023-02-05T01:42:46;4.77;;;2.70;;
14847;SDS011;7516;43.570;1.448;2023-02-05T01:48:26;4.87;;;2.60;;
14847;SDS011;7516;43.570;1.448;2023-02-05T01:50:58;4.23;;;2.63;;
14847;SDS011;7516;43.570;1.448;2023-02-05T01:53:31;4.53;;;2.63;;
14847;SDS011;7516;43.570;1.448;2023-02-05T01:56:02;2.77;;;2.07;;
14847;SDS011;7516;43.570;1.448;2023-02-05T01:58:35;3.33;;;2.40;;
14847;SDS011;7516;43.570;1.448;2023-02-05T02:01:06;2.53;;;2.10;;
14847;SDS011;7516;43.570;1.448;2023-02-05T02:03:34;2.73;;;1.83;;
14847;SDS011;7516;43.570;1.448;2023-02-05T02:06:02;3.20;;;2.00;;
14847;SDS011;7516;43.570;1.448;2023-02-05T02:08:31;2.00;;;1.67;;
14847;SDS011;7516;43.570;1.448;2023-02-05T02:10:59;2.83;;;1.87;;
14847;SDS011;7516;43.570;1.448;2023-02-05T02:13:30;2.83;;;2.10;;
14847;SDS011;7516;43.570;1.448;2023-02-05T02:15:59;2.93;;;2.10;;
14847;SDS011;7516;43.570;1.448;2023-02-05T02:18:27;2.47;;;1.90;;
14847;SDS011;7516;43.570;1.448;2023-02-05T02:24:18;4.37;;;2.50;;
14847;SDS011;7516;43.570;1.448;2023-02-05T02:27:04;4.30;;;3.00;;
14847;SDS011;7516;43.570;1.448;2023-02-05T02:29:46;4.30;;;3.00;;
14847;SDS011;7516;43.570;1.448;2023-02-05T02:32:20;3.63;;;2.87;;
14847;SDS011;7516;43.570;1.448;2023-02-05T02:34:54;3.93;;;2.70;;
14847;SDS011;7516;43.570;1.448;2023-02-05T02:37:29;3.10;;;2.63;;
14847;SDS011;7516;43.570;1.448;2023-02-05T02:40:03;3.20;;;2.50;;
14847;SDS011;7516;43.570;1.448;2023-02-05T02:42:37;3.70;;;2.40;;
14847;SDS011;7516;43.570;1.448;2023-02-05T02:45:09;4.43;;;3.40;;
14847;SDS011;7516;43.570;1.448;2023-02-05T02:47:41;4.00;;;2.77;;
14847;SDS011;7516;43.570;1.448;2023-02-05T02:50:15;6.10;;;3.17;;
14847;SDS011;7516;43.570;1.448;2023-02-05T02:52:49;4.60;;;2.80;;
14847;SDS011;7516;43.570;1.448;2023-02-05T02:55:19;3.43;;;2.90;;
14847;SDS011;7516;43.570;1.448;2023-02-05T02:57:48;3.40;;;2.77;;
14847;SDS011;7516;43.570;1.448;2023-02-05T03:00:20;4.57;;;2.70;;
14847;SDS011;7516;43.570;1.448;2023-02-05T03:02:51;3.80;;;2.80;;
14847;SDS011;7516;43.570;1.448;2023-02-05T03:05:21;2.90;;;2.40;;
14847;SDS011;7516;43.570;1.448;2023-02-05T03:07:53;4.10;;;2.37;;
14847;SDS011;7516;43.570;1.448;2023-02-05T03:10:28;2.90;;;2.20;;
14847;SDS011;7516;43.570;1.448;2023-02-05T03:13:02;2.70;;;1.97;;
14847;SDS011;7516;43.570;1.448;2023-02-05T03:15:31;3.20;;;2.27;;
14847;SDS011;7516;43.570;1.448;2023-02-05T03:17:59;3.40;;;2.20;;
14847;SDS011;7516;43.570;1.448;2023-02-05T03:20:27;2.73;;;2.07;;
14847;SDS011;7516;43.570;1.448;2023-02-05T03:22:58;3.30;;;2.10;;
14847;SDS011;7516;43.570;1.448;2023-02-05T03:25:26;2.73;;;2.00;;
14847;SDS011;7516;43.570;1.448;2023-02-05T03:27:55;2.40;;;2.10;;
14847;SDS011;7516;43.570;1.448;2023-02-05T03:30:25;2.50;;;2.00;;
14847;SDS011;7516;43.570;1.448;2023-02-05T03:32:59;3.17;;;2.20;;
14847;SDS011;7516;43.570;1.448;2023-02-05T03:35:39;3.20;;;1.87;;
14847;SDS011;7516;43.570;1.448;2023-02-05T03:38:17;1.83;;;1.60;;
14847;SDS011;7516;43.570;1.448;2023-02-05T03:40:59;2.43;;;1.80;;
14847;SDS011;7516;43.570;1.448;2023-02-05T03:43:40;2.40;;;1.77;;
14847;SDS011;7516;43.570;1.448;2023-02-05T03:46:19;2.73;;;2.10;;
14847;SDS011;7516;43.570;1.448;2023-02-05T03:48:58;2.07;;;1.40;;
14847;SDS011;7516;43.570;1.448;2023-02-05T03:51:34;3.00;;;1.63;;
14847;SDS011;7516;43.570;1.448;2023-02-05T03:54:11;3.77;;;2.17;;
14847;SDS011;7516;43.570;1.448;2023-02-05T03:56:45;2.57;;;2.20;;
14847;SDS011;7516;43.570;1.448;2023-02-05T03:59:19;3.23;;;2.70;;
14847;SDS011;7516;43.570;1.448;2023-02-05T04:01:47;2.27;;;2.00;;
14847;SDS011;7516;43.570;1.448;2023-02-05T04:04:17;3.30;;;2.73;;
14847;SDS011;7516;43.570;1.448;2023-02-05T04:06:45;3.03;;;2.50;;
14847;SDS011;7516;43.570;1.448;2023-02-05T04:09:14;5.00;;;3.63;;
14847;SDS011;7516;43.570;1.448;2023-02-05T04:11:42;5.80;;;3.80;;
14847;SDS011;7516;43.570;1.448;2023-02-05T04:14:09;3.03;;;2.73;;
14847;SDS011;7516;43.570;1.448;2023-02-05T04:16:37;4.90;;;2.80;;
14847;SDS011;7516;43.570;1.448;2023-02-05T04:19:04;3.30;;;2.33;;
14847;SDS011;7516;43.570;1.448;2023-02-05T04:21:33;6.13;;;3.87;;
14847;SDS011;7516;43.570;1.448;2023-02-05T04:24:01;4.47;;;3.20;;
14847;SDS011;7516;43.570;1.448;2023-02-05T04:26:28;5.33;;;3.53;;
14847;SDS011;7516;43.570;1.448;2023-02-05T04:28:56;3.90;;;3.37;;
14847;SDS011;7516;43.570;1.448;2023-02-05T04:31:23;4.17;;;3.40;;
14847;SDS011;7516;43.570;1.448;2023-02-05T04:33:51;5.10;;;3.57;;
14847;SDS011;7516;43.570;1.448;2023-02-05T04:36:18;4.13;;;3.27;;
14847;SDS011;7516;43.570;1.448;2023-02-05T04:38:47;4.70;;;3.70;;
14847;SDS011;7516;43.570;1.448;2023-02-05T04:41:14;4.97;;;3.50;;
14847;SDS011;7516;43.570;1.448;2023-02-05T04:43:42;3.50;;;2.87;;
14847;SDS011;7516;43.570;1.448;2023-02-05T04:46:09;5.57;;;3.13;;
14847;SDS011;7516;43.570;1.448;2023-02-05T04:48:37;4.37;;;3.20;;
14847;SDS011;7516;43.570;1.448;2023-02-05T04:51:05;4.10;;;2.90;;
14847;SDS011;7516;43.570;1.448;2023-02-05T04:53:33;3.57;;;2.70;;
14847;SDS011;7516;43.570;1.448;2023-02-05T04:56:06;3.90;;;3.30;;
14847;SDS011;7516;43.570;1.448;2023-02-05T04:58:35;4.10;;;2.83;;
14847;SDS011;7516;43.570;1.448;2023-02-05T05:01:03;4.63;;;3.30;;
14847;SDS011;7516;43.570;1.448;2023-02-05T05:03:36;3.90;;;3.17;;
14847;SDS011;7516;43.570;1.448;2023-02-05T05:06:03;3.80;;;2.57;;
14847;SDS011;7516;43.570;1.448;2023-02-05T05:08:31;4.27;;;2.67;;
14847;SDS011;7516;43.570;1.448;2023-02-05T05:11:03;3.83;;;2.90;;
14847;SDS011;7516;43.570;1.448;2023-02-05T05:13:34;4.03;;;2.90;;
14847;SDS011;7516;43.570;1.448;2023-02-05T05:16:02;2.83;;;2.30;;
14847;SDS011;7516;43.570;1.448;2023-02-05T05:18:31;3.50;;;2.80;;
14847;SDS011;7516;43.570;1.448;2023-02-05T05:20:59;3.50;;;2.67;;
14847;SDS011;7516;43.570;1.448;2023-02-05T05:23:27;3.73;;;2.43;;
14847;SDS011;7516;43.570;1.448;2023-02-05T05:25:54;3.43;;;2.60;;
14847;SDS011;7516;43.570;1.448;2023-02-05T05:28:23;4.30;;;2.57;;
14847;SDS011;7516;43.570;1.448;2023-02-05T05:30:51;3.40;;;2.60;;
14847;SDS011;7516;43.570;1.448;2023-02-05T05:33:19;3.67;;;2.77;;
14847;SDS011;7516;43.570;1.448;2023-02-05T05:35:46;4.17;;;2.67;;
14847;SDS011;7516;43.570;1.448;2023-02-05T05:38:14;3.83;;;2.73;;
14847;SDS011;7516;43.570;1.448;2023-02-05T05:40:41;3.97;;;3.10;;
14847;SDS011;7516;43.570;1.448;2023-02-05T05:43:27;4.33;;;2.83;;
14847;SDS011;7516;43.570;1.448;2023-02-05T05:46:13;4.57;;;3.40;;
14847;SDS011;7516;43.570;1.448;2023-02-05T05:48:45;3.33;;;2.67;;
14847;SDS011;7516;43.570;1.448;2023-02-05T05:51:14;5.37;;;2.80;;
14847;SDS011;7516;43.570;1.448;2023-02-05T05:53:42;3.57;;;3.10;;
14847;SDS011;7516;43.570;1.448;2023-02-05T05:56:10;4.83;;;3.17;;
14847;SDS011;7516;43.570;1.448;2023-02-05T05:58:39;3.97;;;3.00;;
14847;SDS011;7516;43.570;1.448;2023-02-05T06:01:07;5.40;;;3.80;;
14847;SDS011;7516;43.570;1.448;2023-02-05T06:03:35;3.40;;;2.70;;
14847;SDS011;7516;43.570;1.448;2023-02-05T06:06:04;3.17;;;2.60;;
14847;SDS011;7516;43.570;1.448;2023-02-05T06:08:32;5.60;;;3.10;;
14847;SDS011;7516;43.570;1.448;2023-02-05T06:11:00;3.50;;;2.50;;
14847;SDS011;7516;43.570;1.448;2023-02-05T06:13:28;3.10;;;2.33;;
14847;SDS011;7516;43.570;1.448;2023-02-05T06:15:57;4.80;;;2.90;;
14847;SDS011;7516;43.570;1.448;2023-02-05T06:18:24;2.97;;;2.40;;
14847;SDS011;7516;43.570;1.448;2023-02-05T06:20:52;4.43;;;2.87;;
14847;SDS011;7516;43.570;1.448;2023-02-05T06:23:19;3.97;;;3.17;;
14847;SDS011;7516;43.570;1.448;2023-02-05T06:25:46;4.23;;;3.50;;
14847;SDS011;7516;43.570;1.448;2023-02-05T06:28:14;4.60;;;3.40;;
14847;SDS011;7516;43.570;1.448;2023-02-05T06:30:41;4.73;;;3.00;;
14847;SDS011;7516;43.570;1.448;2023-02-05T06:33:10;4.50;;;3.37;;
14847;SDS011;7516;43.570;1.448;2023-02-05T06:35:38;4.00;;;2.93;;
14847;SDS011;7516;43.570;1.448;2023-02-05T06:38:06;4.30;;;3.37;;
14847;SDS011;7516;43.570;1.448;2023-02-05T06:40:34;3.90;;;3.10;;
14847;SDS011;7516;43.570;1.448;2023-02-05T06:43:02;4.90;;;3.70;;
14847;SDS011;7516;43.570;1.448;2023-02-05T06:45:29;4.30;;;3.20;;
14847;SDS011;7516;43.570;1.448;2023-02-05T06:47:57;4.63;;;2.83;;
14847;SDS011;7516;43.570;1.448;2023-02-05T06:50:25;3.83;;;2.90;;
14847;SDS011;7516;43.570;1.448;2023-02-05T06:52:53;3.27;;;2.70;;
14847;SDS011;7516;43.570;1.448;2023-02-05T06:55:20;4.27;;;3.10;;
14847;SDS011;7516;43.570;1.448;2023-02-05T06:57:48;3.83;;;3.10;;
14847;SDS011;7516;43.570;1.448;2023-02-05T07:00:15;3.80;;;2.87;;
14847;SDS011;7516;43.570;1.448;2023-02-05T07:02:43;5.20;;;3.80;;
14847;SDS011;7516;43.570;1.448;2023-02-05T07:05:11;5.47;;;3.40;;
14847;SDS011;7516;43.570;1.448;2023-02-05T07:07:40;3.80;;;3.03;;
14847;SDS011;7516;43.570;1.448;2023-02-05T07:10:07;5.10;;;3.63;;
14847;SDS011;7516;43.570;1.448;2023-02-05T07:12:35;4.30;;;3.30;;
14847;SDS011;7516;43.570;1.448;2023-02-05T07:15:03;5.27;;;3.60;;
14847;SDS011;7516;43.570;1.448;2023-02-05T07:17:30;5.40;;;3.60;;
14847;SDS011;7516;43.570;1.448;2023-02-05T07:19:58;6.50;;;3.63;;
14847;SDS011;7516;43.570;1.448;2023-02-05T07:22:25;3.97;;;3.03;;
14847;SDS011;7516;43.570;1.448;2023-02-05T07:24:54;4.57;;;4.00;;
14847;SDS011;7516;43.570;1.448;2023-02-05T07:27:22;4.87;;;3.27;;
14847;SDS011;7516;43.570;1.448;2023-02-05T07:29:49;3.60;;;2.77;;
14847;SDS011;7516;43.570;1.448;2023-02-05T07:32:17;4.20;;;3.23;;
14847;SDS011;7516;43.570;1.448;2023-02-05T07:34:44;3.97;;;2.90;;
14847;SDS011;7516;43.570;1.448;2023-02-05T07:37:11;3.60;;;3.00;;
14847;SDS011;7516;43.570;1.448;2023-02-05T07:39:39;3.10;;;2.70;;
14847;SDS011;7516;43.570;1.448;2023-02-05T07:42:08;4.47;;;3.10;;
14847;SDS011;7516;43.570;1.448;2023-02-05T07:44:36;3.13;;;2.37;;
14847;SDS011;7516;43.570;1.448;2023-02-05T07:47:03;4.63;;;3.10;;
14847;SDS011;7516;43.570;1.448;2023-02-05T07:49:31;2.93;;;2.47;;
14847;SDS011;7516;43.570;1.448;2023-02-05T07:51:58;3.97;;;2.80;;
14847;SDS011;7516;43.570;1.448;2023-02-05T07:54:26;3.87;;;2.70;;
14847;SDS011;7516;43.570;1.448;2023-02-05T07:56:53;4.63;;;3.63;;
14847;SDS011;7516;43.570;1.448;2023-02-05T07:59:22;5.63;;;3.70;;
14847;SDS011;7516;43.570;1.448;2023-02-05T08:01:50;5.07;;;3.97;;
14847;SDS011;7516;43.570;1.448;2023-02-05T08:04:17;4.70;;;3.67;;
14847;SDS011;7516;43.570;1.448;2023-02-05T08:06:44;5.53;;;3.73;;
14847;SDS011;7516;43.570;1.448;2023-02-05T08:09:12;4.87;;;3.57;;
14847;SDS011;7516;43.570;1.448;2023-02-05T08:11:40;5.93;;;4.30;;
14847;SDS011;7516;43.570;1.448;2023-02-05T08:14:08;5.00;;;3.77;;
14847;SDS011;7516;43.570;1.448;2023-02-05T08:16:37;4.77;;;3.37;;
14847;SDS011;7516;43.570;1.448;2023-02-05T08:19:05;3.60;;;3.00;;
14847;SDS011;7516;43.570;1.448;2023-02-05T08:21:34;3.70;;;2.87;;
14847;SDS011;7516;43.570;1.448;2023-02-05T08:24:02;4.33;;;3.47;;
14847;SDS011;7516;43.570;1.448;2023-02-05T08:26:29;6.07;;;3.53;;
14847;SDS011;7516;43.570;1.448;2023-02-05T08:28:57;4.53;;;3.90;;
14847;SDS011;7516;43.570;1.448;2023-02-05T08:31:25;5.13;;;4.00;;
14847;SDS011;7516;43.570;1.448;2023-02-05T08:33:54;5.10;;;3.87;;
14847;SDS011;7516;43.570;1.448;2023-02-05T08:36:24;5.70;;;4.23;;
14847;SDS011;7516;43.570;1.448;2023-02-05T08:38:51;6.07;;;3.70;;
14847;SDS011;7516;43.570;1.448;2023-02-05T08:41:19;5.10;;;3.93;;
14847;SDS011;7516;43.570;1.448;2023-02-05T08:43:47;4.40;;;3.60;;
14847;SDS011;7516;43.570;1.448;2023-02-05T08:46:17;6.07;;;3.67;;
14847;SDS011;7516;43.570;1.448;2023-02-05T08:48:46;5.10;;;3.97;;
14847;SDS011;7516;43.570;1.448;2023-02-05T08:51:15;7.63;;;4.73;;
14847;SDS011;7516;43.570;1.448;2023-02-05T08:53:44;6.33;;;3.87;;
14847;SDS011;7516;43.570;1.448;2023-02-05T08:56:12;5.57;;;4.10;;
14847;SDS011;7516;43.570;1.448;2023-02-05T08:58:41;4.73;;;4.03;;
14847;SDS011;7516;43.570;1.448;2023-02-05T09:01:09;5.77;;;3.97;;
14847;SDS011;7516;43.570;1.448;2023-02-05T09:03:38;6.60;;;4.40;;
14847;SDS011;7516;43.570;1.448;2023-02-05T09:06:07;5.10;;;3.60;;
14847;SDS011;7516;43.570;1.448;2023-02-05T09:08:38;5.13;;;3.73;;
14847;SDS011;7516;43.570;1.448;2023-02-05T09:11:06;6.33;;;4.10;;
14847;SDS011;7516;43.570;1.448;2023-02-05T09:13:34;5.53;;;4.43;;
14847;SDS011;7516;43.570;1.448;2023-02-05T09:16:02;7.93;;;4.77;;
14847;SDS011;7516;43.570;1.448;2023-02-05T09:18:29;6.33;;;4.23;;
14847;SDS011;7516;43.570;1.448;2023-02-05T09:20:57;7.23;;;4.23;;
14847;SDS011;7516;43.570;1.448;2023-02-05T09:23:24;6.03;;;4.43;;
14847;SDS011;7516;43.570;1.448;2023-02-05T09:25:53;5.23;;;4.00;;
14847;SDS011;7516;43.570;1.448;2023-02-05T09:28:23;5.50;;;3.80;;
14847;SDS011;7516;43.570;1.448;2023-02-05T09:30:51;5.60;;;4.20;;
14847;SDS011;7516;43.570;1.448;2023-02-05T09:33:18;6.00;;;4.50;;
14847;SDS011;7516;43.570;1.448;2023-02-05T09:35:46;5.97;;;3.73;;
14847;SDS011;7516;43.570;1.448;2023-02-05T09:38:13;4.63;;;3.53;;
14847;SDS011;7516;43.570;1.448;2023-02-05T09:40:46;5.30;;;3.97;;
14847;SDS011;7516;43.570;1.448;2023-02-05T09:43:26;5.03;;;3.83;;
14847;SDS011;7516;43.570;1.448;2023-02-05T09:46:06;6.23;;;3.87;;
14847;SDS011;7516;43.570;1.448;2023-02-05T09:48:44;6.07;;;3.90;;
14847;SDS011;7516;43.570;1.448;2023-02-05T09:51:19;5.13;;;3.50;;
14847;SDS011;7516;43.570;1.448;2023-02-05T09:53:52;5.97;;;4.20;;
14847;SDS011;7516;43.570;1.448;2023-02-05T09:56:24;4.00;;;3.20;;
14847;SDS011;7516;43.570;1.448;2023-02-05T09:58:53;5.13;;;3.50;;
14847;SDS011;7516;43.570;1.448;2023-02-05T10:01:28;4.80;;;3.53;;
14847;SDS011;7516;43.570;1.448;2023-02-05T10:04:06;5.60;;;4.20;;
14847;SDS011;7516;43.570;1.448;2023-02-05T10:09:51;5.70;;;4.83;;
14847;SDS011;7516;43.570;1.448;2023-02-05T10:12:50;6.53;;;4.30;;
14847;SDS011;7516;43.570;1.448;2023-02-05T10:15:38;5.63;;;3.67;;
14847;SDS011;7516;43.570;1.448;2023-02-05T10:18:23;6.40;;;4.63;;
14847;SDS011;7516;43.570;1.448;2023-02-05T10:21:00;5.67;;;4.07;;
14847;SDS011;7516;43.570;1.448;2023-02-05T10:23:44;5.80;;;4.20;;
14847;SDS011;7516;43.570;1.448;2023-02-05T10:26:23;6.07;;;4.30;;
14847;SDS011;7516;43.570;1.448;2023-02-05T10:29:02;5.70;;;4.37;;
14847;SDS011;7516;43.570;1.448;2023-02-05T10:31:41;6.57;;;4.30;;
14847;SDS011;7516;43.570;1.448;2023-02-05T10:34:15;6.20;;;4.30;;
14847;SDS011;7516;43.570;1.448;2023-02-05T10:36:44;7.37;;;4.40;;
14847;SDS011;7516;43.570;1.448;2023-02-05T10:39:17;5.93;;;3.90;;
14847;SDS011;7516;43.570;1.448;2023-02-05T10:41:48;5.70;;;4.60;;
14847;SDS011;7516;43.570;1.448;2023-02-05T10:44:22;5.17;;;4.10;;
14847;SDS011;7516;43.570;1.448;2023-02-05T10:46:55;5.37;;;4.60;;
14847;SDS011;7516;43.570;1.448;2023-02-05T10:49:29;5.17;;;4.30;;
14847;SDS011;7516;43.570;1.448;2023-02-05T10:52:07;5.40;;;4.23;;
14847;SDS011;7516;43.570;1.448;2023-02-05T10:54:36;5.10;;;3.57;;
14847;SDS011;7516;43.570;1.448;2023-02-05T10:57:08;6.97;;;4.40;;
14847;SDS011;7516;43.570;1.448;2023-02-05T10:59:44;6.40;;;4.10;;
14847;SDS011;7516;43.570;1.448;2023-02-05T11:02:18;6.53;;;4.50;;
14847;SDS011;7516;43.570;1.448;2023-02-05T11:04:48;5.53;;;4.30;;
14847;SDS011;7516;43.570;1.448;2023-02-05T11:07:22;4.23;;;3.50;;
14847;SDS011;7516;43.570;1.448;2023-02-05T11:09:53;6.67;;;4.33;;
14847;SDS011;7516;43.570;1.448;2023-02-05T11:12:25;6.07;;;4.10;;
14847;SDS011;7516;43.570;1.448;2023-02-05T11:14:57;5.00;;;3.67;;
14847;SDS011;7516;43.570;1.448;2023-02-05T11:17:28;6.53;;;3.80;;
14847;SDS011;7516;43.570;1.448;2023-02-05T11:19:59;5.37;;;4.50;;
14847;SDS011;7516;43.570;1.448;2023-02-05T11:22:31;7.00;;;3.97;;
14847;SDS011;7516;43.570;1.448;2023-02-05T11:25:04;5.67;;;4.17;;
14847;SDS011;7516;43.570;1.448;2023-02-05T11:27:38;6.33;;;4.20;;
14847;SDS011;7516;43.570;1.448;2023-02-05T11:30:23;6.77;;;4.07;;
14847;SDS011;7516;43.570;1.448;2023-02-05T11:32:52;6.30;;;3.97;;
14847;SDS011;7516;43.570;1.448;2023-02-05T11:35:21;3.93;;;3.30;;
14847;SDS011;7516;43.570;1.448;2023-02-05T11:37:54;7.03;;;4.33;;
14847;SDS011;7516;43.570;1.448;2023-02-05T11:40:27;4.87;;;3.73;;
14847;SDS011;7516;43.570;1.448;2023-02-05T11:43:01;4.80;;;4.03;;
14847;SDS011;7516;43.570;1.448;2023-02-05T11:45:33;5.57;;;3.57;;
14847;SDS011;7516;43.570;1.448;2023-02-05T11:48:04;4.67;;;3.23;;
14847;SDS011;7516;43.570;1.448;2023-02-05T11:50:47;6.60;;;3.97;;
14847;SDS011;7516;43.570;1.448;2023-02-05T11:53:15;6.47;;;3.90;;
14847;SDS011;7516;43.570;1.448;2023-02-05T11:55:50;7.03;;;3.73;;
14847;SDS011;7516;43.570;1.448;2023-02-05T11:58:21;8.30;;;4.10;;
14847;SDS011;7516;43.570;1.448;2023-02-05T12:00:53;6.00;;;3.90;;
14847;SDS011;7516;43.570;1.448;2023-02-05T12:03:22;5.50;;;3.63;;
14847;SDS011;7516;43.570;1.448;2023-02-05T12:05:53;5.70;;;3.93;;
14847;SDS011;7516;43.570;1.448;2023-02-05T12:08:29;5.57;;;3.57;;
14847;SDS011;7516;43.570;1.448;2023-02-05T12:11:03;6.17;;;4.00;;
14847;SDS011;7516;43.570;1.448;2023-02-05T12:13:44;5.17;;;3.87;;
14847;SDS011;7516;43.570;1.448;2023-02-05T12:16:26;5.87;;;3.97;;
14847;SDS011;7516;43.570;1.448;2023-02-05T12:19:09;4.47;;;3.50;;
14847;SDS011;7516;43.570;1.448;2023-02-05T12:21:43;4.63;;;3.77;;
14847;SDS011;7516;43.570;1.448;2023-02-05T12:27:21;5.00;;;3.30;;
14847;SDS011;7516;43.570;1.448;2023-02-05T12:30:02;4.53;;;3.77;;
14847;SDS011;7516;43.570;1.448;2023-02-05T12:32:54;5.23;;;3.57;;
14847;SDS011;7516;43.570;1.448;2023-02-05T12:35:36;5.13;;;3.37;;
14847;SDS011;7516;43.570;1.448;2023-02-05T12:38:17;5.70;;;3.93;;
14847;SDS011;7516;43.570;1.448;2023-02-05T12:40:55;5.90;;;4.90;;
14847;SDS011;7516;43.570;1.448;2023-02-05T12:43:36;5.00;;;4.03;;
14847;SDS011;7516;43.570;1.448;2023-02-05T12:46:08;5.63;;;4.13;;
14847;SDS011;7516;43.570;1.448;2023-02-05T12:48:53;6.17;;;4.27;;
14847;SDS011;7516;43.570;1.448;2023-02-05T12:51:36;5.10;;;4.23;;
14847;SDS011;7516;43.570;1.448;2023-02-05T12:54:23;5.20;;;3.20;;
14847;SDS011;7516;43.570;1.448;2023-02-05T12:57:07;5.47;;;3.80;;
14847;SDS011;7516;43.570;1.448;2023-02-05T12:59:37;5.47;;;3.77;;
14847;SDS011;7516;43.570;1.448;2023-02-05T13:02:14;7.23;;;4.13;;
14847;SDS011;7516;43.570;1.448;2023-02-05T13:04:50;4.80;;;3.83;;
14847;SDS011;7516;43.570;1.448;2023-02-05T13:07:26;4.57;;;3.33;;
14847;SDS011;7516;43.570;1.448;2023-02-05T13:09:58;6.10;;;3.97;;
14847;SDS011;7516;43.570;1.448;2023-02-05T13:12:28;4.57;;;3.70;;
14847;SDS011;7516;43.570;1.448;2023-02-05T13:15:04;5.50;;;3.97;;
14847;SDS011;7516;43.570;1.448;2023-02-05T13:17:40;4.80;;;3.87;;
14847;SDS011;7516;43.570;1.448;2023-02-05T13:20:21;5.60;;;3.87;;
14847;SDS011;7516;43.570;1.448;2023-02-05T13:23:11;5.37;;;4.20;;
14847;SDS011;7516;43.570;1.448;2023-02-05T13:26:00;5.43;;;4.37;;
14847;SDS011;7516;43.570;1.448;2023-02-05T13:28:48;5.70;;;3.70;;
14847;SDS011;7516;43.570;1.448;2023-02-05T13:31:23;6.60;;;4.57;;
14847;SDS011;7516;43.570;1.448;2023-02-05T13:33:54;6.53;;;4.20;;
14847;SDS011;7516;43.570;1.448;2023-02-05T13:36:32;5.80;;;3.73;;
14847;SDS011;7516;43.570;1.448;2023-02-05T13:45:35;4.97;;;3.70;;
14847;SDS011;7516;43.570;1.448;2023-02-05T13:48:28;5.13;;;4.00;;
14847;SDS011;7516;43.570;1.448;2023-02-05T13:51:27;5.97;;;4.30;;
14847;SDS011;7516;43.570;1.448;2023-02-05T13:54:18;5.60;;;4.20;;
14847;SDS011;7516;43.570;1.448;2023-02-05T13:57:07;5.43;;;4.23;;
14847;SDS011;7516;43.570;1.448;2023-02-05T13:59:51;5.30;;;3.73;;
14847;SDS011;7516;43.570;1.448;2023-02-05T14:02:25;5.57;;;3.97;;
14847;SDS011;7516;43.570;1.448;2023-02-05T14:04:58;6.17;;;4.00;;
14847;SDS011;7516;43.570;1.448;2023-02-05T14:07:30;5.00;;;4.00;;
14847;SDS011;7516;43.570;1.448;2023-02-05T14:10:00;6.40;;;4.70;;
14847;SDS011;7516;43.570;1.448;2023-02-05T14:12:30;5.13;;;3.67;;
14847;SDS011;7516;43.570;1.448;2023-02-05T14:18:00;8.03;;;5.50;;
14847;SDS011;7516;43.570;1.448;2023-02-05T14:20:32;8.77;;;5.33;;
14847;SDS011;7516;43.570;1.448;2023-02-05T14:23:19;6.97;;;4.53;;
14847;SDS011;7516;43.570;1.448;2023-02-05T14:26:19;6.07;;;4.50;;
14847;SDS011;7516;43.570;1.448;2023-02-05T14:32:04;6.13;;;3.77;;
14847;SDS011;7516;43.570;1.448;2023-02-05T14:37:32;5.47;;;3.87;;
14847;SDS011;7516;43.570;1.448;2023-02-05T14:40:20;4.87;;;4.03;;
14847;SDS011;7516;43.570;1.448;2023-02-05T14:42:51;5.53;;;4.07;;
14847;SDS011;7516;43.570;1.448;2023-02-05T14:45:22;7.03;;;4.17;;
14847;SDS011;7516;43.570;1.448;2023-02-05T14:47:52;5.80;;;4.20;;
14847;SDS011;7516;43.570;1.448;2023-02-05T14:50:22;5.80;;;4.00;;
14847;SDS011;7516;43.570;1.448;2023-02-05T14:52:52;5.47;;;3.97;;
14847;SDS011;7516;43.570;1.448;2023-02-05T14:55:25;6.07;;;4.40;;
14847;SDS011;7516;43.570;1.448;2023-02-05T14:57:58;4.73;;;3.73;;
14847;SDS011;7516;43.570;1.448;2023-02-05T15:00:30;5.70;;;4.13;;
14847;SDS011;7516;43.570;1.448;2023-02-05T15:03:07;4.57;;;3.50;;
14847;SDS011;7516;43.570;1.448;2023-02-05T15:05:48;5.00;;;4.07;;
14847;SDS011;7516;43.570;1.448;2023-02-05T15:08:21;4.90;;;3.50;;
14847;SDS011;7516;43.570;1.448;2023-02-05T15:11:06;5.13;;;3.90;;
14847;SDS011;7516;43.570;1.448;2023-02-05T15:13:39;4.80;;;4.03;;
14847;SDS011;7516;43.570;1.448;2023-02-05T15:16:20;6.57;;;4.43;;
14847;SDS011;7516;43.570;1.448;2023-02-05T15:18:50;5.60;;;3.83;;
14847;SDS011;7516;43.570;1.448;2023-02-05T15:21:21;5.87;;;4.37;;
14847;SDS011;7516;43.570;1.448;2023-02-05T15:23:54;5.50;;;4.40;;
14847;SDS011;7516;43.570;1.448;2023-02-05T15:26:29;5.40;;;4.23;;
14847;SDS011;7516;43.570;1.448;2023-02-05T15:29:05;4.80;;;4.30;;
14847;SDS011;7516;43.570;1.448;2023-02-05T15:31:39;4.37;;;3.43;;
14847;SDS011;7516;43.570;1.448;2023-02-05T15:34:23;5.67;;;3.87;;
14847;SDS011;7516;43.570;1.448;2023-02-05T15:36:56;5.90;;;4.33;;
14847;SDS011;7516;43.570;1.448;2023-02-05T15:39:31;5.07;;;4.10;;
14847;SDS011;7516;43.570;1.448;2023-02-05T15:42:14;4.77;;;4.20;;
14847;SDS011;7516;43.570;1.448;2023-02-05T15:44:44;6.60;;;4.30;;
14847;SDS011;7516;43.570;1.448;2023-02-05T15:47:12;6.07;;;3.83;;
14847;SDS011;7516;43.570;1.448;2023-02-05T15:49:46;6.37;;;4.30;;
14847;SDS011;7516;43.570;1.448;2023-02-05T15:52:18;4.70;;;4.20;;
14847;SDS011;7516;43.570;1.448;2023-02-05T15:54:48;4.67;;;4.00;;
14847;SDS011;7516;43.570;1.448;2023-02-05T15:57:20;5.60;;;4.40;;